Hart Lot, New York
Current Conditions -  °F | °C
As of 3:54 PM on Saturday 22 Nov 2014 (Local Time) from KSYR Reporting Station
Light Rain Light Rain  
Wind Chill: 38°   Ceiling: 2900
Heat Index: 42°   Visibility: 10mi
Dew Point: 27°   Wind: 7mph
Humidity: 55%   Direction: 200°SSW
Pressure: 30.02"   Gusts: NA
Location:  43.0229°N, 76.4237°W
Report Text: KSYR 222054Z 20006KT 10SM -RA OVC029 06/M03 A3002 RMK AO2 RAB37 SLP166 P0000 60007 T00561028 56026 $
Loading
Personal Weather Stations






























Interactive Weather Map New forecast layout! Learn more

10-Day Weather Forecast

Advertisements
Track Severe Weather on mobile